Time;durP1;ratioP1;P1;durP2;ratioP2;P2;SDS_P1;SDS_P2;PMS_P1;PMS_P2;Temp;Humidity;BMP_temperature;BMP_pressure;BME280_temperature;BME280_humidity;BME280_pressure;Samples;Min_cycle;Max_cycle;Signal;HPM_P1;HPM_P2
2023/05/02 00:02:35;;;;;;;15.23;12.27;;;;;;;10.45;100.00;96295.53;5050122;28;20544;-83
2023/05/02 00:05:01;;;;;;;13.93;11.43;;;;;;;10.39;100.00;96296.97;5051192;28;20414;-83
2023/05/02 00:07:27;;;;;;;15.23;12.07;;;;;;;10.37;100.00;96293.69;5049976;28;20091;-83
2023/05/02 00:09:53;;;;;;;14.80;11.40;;;;;;;10.38;100.00;96295.34;5055584;28;20033;-84
2023/05/02 00:12:19;;;;;;;14.40;11.57;;;;;;;10.33;100.00;96281.84;5051497;28;20757;-83
2023/05/02 00:14:44;;;;;;;13.00;11.10;;;;;;;10.42;100.00;96280.06;5087136;28;20091;-82
2023/05/02 00:17:17;;;;;;;13.90;10.77;;;;;;;10.23;100.00;96286.34;5062980;28;20036;-83
2023/05/02 00:19:42;;;;;;;15.82;10.68;;;;;;;10.32;100.00;96275.75;5052525;28;20115;-83
2023/05/02 00:22:08;;;;;;;14.17;11.40;;;;;;;10.23;100.00;96276.69;5054219;28;20620;-83
2023/05/02 00:24:34;;;;;;;13.67;10.77;;;;;;;10.09;100.00;96274.59;5054503;28;20547;-83
2023/05/02 00:27:00;;;;;;;13.00;10.53;;;;;;;10.21;100.00;96277.81;5058753;28;20029;-83
2023/05/02 00:29:29;;;;;;;13.27;10.87;;;;;;;10.15;100.00;96281.88;5048818;28;20040;-83
2023/05/02 00:31:55;;;;;;;12.87;10.13;;;;;;;10.26;100.00;96283.44;5050341;28;20029;-83
2023/05/02 00:34:21;;;;;;;11.97;10.00;;;;;;;10.20;100.00;96281.41;5051383;28;20048;-82
2023/05/02 00:36:47;;;;;;;13.30;10.80;;;;;;;10.24;100.00;96280.13;5075231;28;20459;-83
2023/05/02 00:39:13;;;;;;;12.90;10.70;;;;;;;10.28;100.00;96284.13;5051808;28;20029;-83
2023/05/02 00:41:38;;;;;;;12.47;10.27;;;;;;;10.30;100.00;96284.78;5050776;28;20050;-83
2023/05/02 00:44:04;;;;;;;12.63;10.03;;;;;;;10.29;100.00;96281.31;5042937;28;20029;-83
2023/05/02 00:46:38;;;;;;;13.13;10.77;;;;;;;10.31;100.00;96286.44;5059073;28;20406;-83
2023/05/02 00:49:04;;;;;;;14.10;10.40;;;;;;;10.28;100.00;96281.47;5054755;28;20086;-83
2023/05/02 00:51:32;;;;;;;15.20;11.60;;;;;;;10.26;100.00;96281.66;5062062;28;20441;-83
2023/05/02 00:54:00;;;;;;;14.13;10.57;;;;;;;10.17;100.00;96290.44;5052212;28;20629;-84
2023/05/02 00:56:27;;;;;;;14.70;10.60;;;;;;;10.11;100.00;96289.25;5054206;28;20032;-83
2023/05/02 00:58:53;;;;;;;13.90;10.50;;;;;;;10.14;100.00;96291.56;5057937;28;20050;-83
2023/05/02 01:01:21;;;;;;;12.93;9.53;;;;;;;10.15;100.00;96293.19;5069851;28;20062;-83
2023/05/02 01:04:00;;;;;;;12.27;9.30;;;;;;;10.10;100.00;96292.03;5053701;28;20020;-83
2023/05/02 01:06:42;;;;;;;13.07;10.13;;;;;;;10.09;100.00;96293.84;5067614;28;20049;-83
2023/05/02 01:09:26;;;;;;;14.93;10.77;;;;;;;9.98;100.00;96295.88;5073865;28;20043;-83
2023/05/02 01:12:04;;;;;;;14.02;10.25;;;;;;;10.00;100.00;96301.81;5046688;28;20033;-83
2023/05/02 01:14:34;;;;;;;13.07;10.10;;;;;;;9.95;100.00;96294.38;5070488;28;20130;-84
2023/05/02 01:17:08;;;;;;;14.67;10.13;;;;;;;9.98;100.00;96295.88;5051901;28;20040;-83
2023/05/02 01:19:36;;;;;;;15.43;10.70;;;;;;;10.05;100.00;96304.78;5047270;28;20463;-83
2023/05/02 01:22:10;;;;;;;13.87;11.00;;;;;;;9.85;100.00;96304.97;5070056;28;20034;-83
2023/05/02 01:25:03;;;;;;;13.50;10.87;;;;;;;9.78;100.00;96303.13;5061457;28;20043;-85
2023/05/02 01:28:07;;;;;;;13.80;11.00;;;;;;;9.73;100.00;96310.66;5050150;28;20043;-83
2023/05/02 01:30:35;;;;;;;;;;;;;;;9.67;100.00;96310.28;5055543;28;20037;-83
2023/05/02 01:33:02;;;;;;;15.33;11.60;;;;;;;9.71;100.00;96316.03;5063558;28;19982;-83
2023/05/02 01:35:29;;;;;;;14.20;11.47;;;;;;;9.68;100.00;96313.72;5051958;28;20045;-83
2023/05/02 01:38:00;;;;;;;14.77;11.57;;;;;;;9.65;100.00;96311.38;5073768;28;20051;-83
2023/05/02 01:40:26;;;;;;;14.20;10.83;;;;;;;9.62;100.00;96315.16;5052266;28;20044;-83
2023/05/02 01:42:53;;;;;;;15.40;11.80;;;;;;;9.71;100.00;96317.84;5068688;28;20032;-83
2023/05/02 01:45:21;;;;;;;15.80;12.10;;;;;;;9.68;100.00;96319.78;5053858;28;20064;-83
2023/05/02 01:47:47;;;;;;;15.50;11.77;;;;;;;9.71;100.00;96317.84;5052866;28;20064;-84
2023/05/02 01:50:21;;;;;;;14.53;11.47;;;;;;;9.76;100.00;96319.06;5069817;28;20118;-83
2023/05/02 01:52:52;;;;;;;14.70;10.67;;;;;;;9.64;100.00;96318.44;5057802;28;20033;-83
2023/05/02 01:55:30;;;;;;;14.50;11.03;;;;;;;9.63;100.00;96315.97;5053925;28;20063;-83
2023/05/02 01:57:56;;;;;;;13.97;11.23;;;;;;;9.64;100.00;96321.06;5046995;28;20037;-83
2023/05/02 02:00:24;;;;;;;14.37;10.60;;;;;;;9.73;100.00;96319.34;5049295;28;20032;-83
2023/05/02 02:02:52;;;;;;;15.00;11.67;;;;;;;9.63;100.00;96322.06;5070516;28;20027;-84
2023/05/02 02:05:19;;;;;;;12.47;10.27;;;;;;;9.70;100.00;96321.47;5055568;28;20029;-83
2023/05/02 02:07:45;;;;;;;14.20;10.50;;;;;;;9.47;100.00;96321.91;5049689;28;20032;-83
2023/05/02 02:10:11;;;;;;;14.73;10.40;;;;;;;9.49;100.00;96322.59;5055292;28;20043;-83
2023/05/02 02:13:03;;;;;;;14.77;10.67;;;;;;;9.37;100.00;96329.03;5068634;28;20124;-84
2023/05/02 02:15:34;;;;;;;12.50;9.33;;;;;;;9.48;100.00;96330.59;5041959;28;20905;-83
2023/05/02 02:18:10;;;;;;;13.43;9.90;;;;;;;9.46;100.00;96338.66;5054041;28;20041;-83
2023/05/02 02:21:02;;;;;;;12.87;10.80;;;;;;;9.34;100.00;96345.06;5044731;28;20048;-84
2023/05/02 02:23:31;;;;;;;13.20;10.63;;;;;;;9.44;100.00;96345.84;5050001;28;20041;-84
2023/05/02 02:25:57;;;;;;;13.37;10.73;;;;;;;9.49;100.00;96340.97;5052067;28;20506;-84
2023/05/02 02:28:23;;;;;;;14.13;10.47;;;;;;;9.50;100.00;96340.00;5055506;28;20025;-84
2023/05/02 02:30:50;;;;;;;13.10;10.47;;;;;;;9.48;100.00;96338.47;5055909;28;20031;-84
2023/05/02 02:33:17;;;;;;;15.27;10.77;;;;;;;9.39;100.00;96333.16;5071938;28;20024;-84
2023/05/02 02:36:07;;;;;;;14.30;9.93;;;;;;;9.39;100.00;96340.22;5053692;28;20028;-84
2023/05/02 02:38:49;;;;;;;13.00;10.63;;;;;;;9.33;100.00;96335.56;5045420;28;20032;-83
2023/05/02 02:41:27;;;;;;;14.20;11.00;;;;;;;9.32;100.00;96354.88;5053681;28;20029;-84
2023/05/02 02:44:01;;;;;;;14.47;11.37;;;;;;;9.29;100.00;96352.56;5070883;28;20032;-83
2023/05/02 02:46:48;;;;;;;13.20;10.50;;;;;;;9.37;100.00;96357.91;5064430;28;20040;-84
2023/05/02 02:49:41;;;;;;;16.07;11.67;;;;;;;9.28;100.00;96353.53;5051531;28;20041;-84
2023/05/02 02:52:16;;;;;;;16.88;11.40;;;;;;;9.28;100.00;96356.16;5059981;28;20657;-83
2023/05/02 02:55:05;;;;;;;14.73;11.30;;;;;;;9.32;100.00;96360.97;5054792;28;20025;-84
2023/05/02 02:57:44;;;;;;;17.27;11.87;;;;;;;9.36;100.00;96361.50;5066462;28;20040;-83
2023/05/02 03:00:26;;;;;;;16.17;11.90;;;;;;;9.13;100.00;96368.97;5052879;28;20427;-83
2023/05/02 03:02:52;;;;;;;13.33;10.77;;;;;;;9.16;100.00;96366.88;5048255;28;20071;-84
2023/05/02 03:05:21;;;;;;;13.73;10.67;;;;;;;9.11;100.00;96358.59;5043224;28;20033;-84
2023/05/02 03:07:46;;;;;;;16.93;12.37;;;;;;;9.09;100.00;96371.06;5032608;28;20056;-84
2023/05/02 03:10:12;;;;;;;15.83;12.27;;;;;;;9.04;100.00;96362.78;5068256;28;20033;-84
2023/05/02 03:12:39;;;;;;;16.57;12.70;;;;;;;9.13;100.00;96371.59;5048746;28;20028;-83
2023/05/02 03:15:45;;;;;;;16.20;12.07;;;;;;;9.01;100.00;96378.81;5060153;28;20028;-84
2023/05/02 03:18:13;;;;;;;16.40;12.37;;;;;;;8.99;100.00;96378.16;5059299;28;20028;-83
2023/05/02 03:20:54;;;;;;;15.17;11.70;;;;;;;8.95;100.00;96384.63;5077514;28;20075;-83
2023/05/02 03:23:23;;;;;;;17.27;12.50;;;;;;;8.98;100.00;96382.56;5069433;28;20028;-85
2023/05/02 03:25:51;;;;;;;15.90;12.30;;;;;;;8.97;100.00;96393.19;5055521;28;20039;-85
2023/05/02 03:28:32;;;;;;;15.93;13.13;;;;;;;8.93;100.00;96402.34;5053201;28;20037;-84
2023/05/02 03:30:58;;;;;;;17.97;13.43;;;;;;;8.89;100.00;96395.75;5064471;28;20556;-84
2023/05/02 03:33:24;;;;;;;17.60;14.13;;;;;;;8.98;100.00;96395.66;5068340;28;20036;-84
2023/05/02 03:35:51;;;;;;;18.80;14.37;;;;;;;9.03;100.00;96403.13;5040717;28;20040;-84
2023/05/02 03:38:17;;;;;;;19.00;14.10;;;;;;;8.92;100.00;96400.66;5047935;28;20120;-84
2023/05/02 03:40:56;;;;;;;18.13;15.33;;;;;;;8.92;100.00;96409.38;5069363;28;20037;-84
2023/05/02 03:43:22;;;;;;;18.37;13.73;;;;;;;8.98;100.00;96405.34;5050167;28;20029;-85
2023/05/02 03:45:48;;;;;;;19.27;13.90;;;;;;;9.03;100.00;96413.63;5041924;28;20044;-84
2023/05/02 03:48:15;;;;;;;19.53;15.20;;;;;;;9.05;100.00;96410.84;5049216;28;20115;-84
2023/05/02 03:50:41;;;;;;;19.77;15.13;;;;;;;9.06;100.00;96418.56;5068746;28;20012;-84
2023/05/02 03:53:08;;;;;;;18.33;14.67;;;;;;;9.08;100.00;96421.84;5068600;28;20040;-85
2023/05/02 03:55:44;;;;;;;17.17;14.03;;;;;;;9.05;100.00;96423.94;5064208;28;20115;-83
2023/05/02 03:58:16;;;;;;;18.67;14.45;;;;;;;9.04;100.00;96425.75;5062282;28;20117;-84
2023/05/02 04:00:43;;;;;;;17.60;14.43;;;;;;;9.07;100.00;96428.09;5065482;28;20123;-84
2023/05/02 04:03:15;;;;;;;19.50;14.67;;;;;;;9.00;100.00;96432.25;5071585;28;20506;-84
2023/05/02 04:05:44;;;;;;;21.00;14.77;;;;;;;9.02;100.00;96432.97;5049443;28;20162;-84
2023/05/02 04:08:12;;;;;;;17.30;14.03;;;;;;;9.08;100.00;96436.78;5066227;28;20028;-83
2023/05/02 04:10:38;;;;;;;21.30;15.60;;;;;;;9.15;100.00;96437.84;5049894;28;20047;-84
2023/05/02 04:13:07;;;;;;;20.33;15.80;;;;;;;9.35;100.00;96443.81;5050427;28;20032;-85
2023/05/02 04:15:34;;;;;;;18.77;14.97;;;;;;;9.28;100.00;96445.38;5050686;28;20082;-84
2023/05/02 04:18:00;;;;;;;17.67;14.90;;;;;;;9.25;100.00;96454.38;5055989;28;20028;-84
2023/05/02 04:20:26;;;;;;;17.70;13.77;;;;;;;9.28;100.00;96450.63;5065377;28;20043;-85
2023/05/02 04:22:54;;;;;;;18.10;13.80;;;;;;;9.33;100.00;96451.03;5053659;28;20024;-84
2023/05/02 04:25:21;;;;;;;18.30;15.27;;;;;;;9.38;100.00;96457.47;5050211;28;20036;-84
2023/05/02 04:27:50;;;;;;;19.00;14.10;;;;;;;9.46;100.00;96454.16;5047841;28;20033;-84
2023/05/02 04:30:18;;;;;;;18.27;14.63;;;;;;;9.39;100.00;96455.72;5068028;28;20044;-84
2023/05/02 04:32:53;;;;;;;18.47;14.47;;;;;;;9.51;100.00;96458.94;5072092;28;20024;-84
2023/05/02 04:35:26;;;;;;;17.50;13.83;;;;;;;9.48;100.00;96457.44;5051775;28;20028;-85
2023/05/02 04:37:53;;;;;;;22.27;16.63;;;;;;;9.54;100.00;96463.91;5050491;28;20491;-84
2023/05/02 04:40:20;;;;;;;19.40;15.90;;;;;;;9.52;100.00;96461.41;5053823;28;20032;-84
2023/05/02 04:43:12;;;;;;;17.47;14.50;;;;;;;9.60;100.00;96464.13;5067295;28;20560;-85
2023/05/02 04:45:53;;;;;;;17.00;13.33;;;;;;;9.65;100.00;96471.56;5052360;28;20123;-76
2023/05/02 04:48:45;;;;;;;16.67;13.87;;;;;;;9.74;100.00;96469.88;5052052;28;20041;-83
2023/05/02 04:51:13;;;;;;;18.43;14.53;;;;;;;9.81;100.00;96479.63;5044916;28;20032;-83
2023/05/02 04:53:38;;;;;;;18.07;14.20;;;;;;;9.64;100.00;96473.38;5067286;28;20079;-83
2023/05/02 04:56:13;;;;;;;16.37;13.17;;;;;;;9.68;100.00;96477.34;5050180;28;20048;-83
2023/05/02 04:58:39;;;;;;;18.57;13.87;;;;;;;9.78;100.00;96481.72;5047164;28;20037;-83
2023/05/02 05:01:15;;;;;;;17.27;14.03;;;;;;;9.81;100.00;96482.25;5050203;28;20064;-83
2023/05/02 05:03:44;;;;;;;18.75;13.43;;;;;;;9.85;100.00;96483.59;5046989;28;20081;-83
2023/05/02 05:06:11;;;;;;;17.50;13.00;;;;;;;9.80;100.00;96490.28;5061969;28;20128;-82
2023/05/02 05:08:37;;;;;;;18.53;13.40;;;;;;;9.67;100.00;96485.38;5067650;28;20033;-82
2023/05/02 05:11:04;;;;;;;17.33;13.60;;;;;;;9.71;100.00;96493.78;5060882;28;20025;-83
2023/05/02 05:13:31;;;;;;;17.67;13.67;;;;;;;9.72;100.00;96495.44;5061901;28;20033;-83
2023/05/02 05:16:00;;;;;;;17.03;13.20;;;;;;;9.78;100.00;96493.03;5049726;28;20032;-83
2023/05/02 05:18:30;;;;;;;17.17;13.25;;;;;;;9.71;100.00;96492.00;5040854;28;20128;-83
2023/05/02 05:20:56;;;;;;;16.60;13.10;;;;;;;9.82;100.00;96499.66;5060740;28;20136;-83
2023/05/02 05:23:27;;;;;;;17.10;13.37;;;;;;;9.87;100.00;96496.59;5053290;28;20032;-83
2023/05/02 05:25:53;;;;;;;15.03;12.90;;;;;;;10.01;100.00;96495.25;5066601;28;20051;-83
2023/05/02 05:28:19;;;;;;;16.40;13.37;;;;;;;9.85;100.00;96499.34;5053606;28;20040;-83
2023/05/02 05:30:53;;;;;;;15.90;12.97;;;;;;;10.13;100.00;96502.78;5054030;28;20545;-83
2023/05/02 05:33:21;;;;;;;15.83;12.93;;;;;;;10.40;100.00;96498.44;5072330;28;20028;-84
2023/05/02 05:35:48;;;;;;;15.83;12.40;;;;;;;10.25;100.00;96499.91;5057652;28;20458;-82
2023/05/02 05:38:14;;;;;;;16.27;12.13;;;;;;;10.26;100.00;96498.97;5062519;28;20035;-83
2023/05/02 05:40:50;;;;;;;15.33;12.50;;;;;;;10.54;100.00;96499.72;5050783;28;20368;-83
2023/05/02 05:43:16;;;;;;;15.50;13.13;;;;;;;10.52;100.00;96499.84;5060463;28;20070;-83
2023/05/02 05:45:41;;;;;;;13.93;11.50;;;;;;;10.39;100.00;96509.91;5047207;28;20394;-84
2023/05/02 05:48:07;;;;;;;15.70;12.43;;;;;;;10.46;100.00;96508.38;5069074;28;20040;-83
2023/05/02 05:50:38;;;;;;;14.90;11.93;;;;;;;10.59;100.00;96508.78;5056019;28;20067;-83
2023/05/02 05:53:07;;;;;;;14.30;11.60;;;;;;;10.37;100.00;96519.78;5065107;28;20017;-83
2023/05/02 05:55:37;;;;;;;15.20;11.60;;;;;;;10.49;100.00;96520.34;5069741;28;20066;-83
2023/05/02 05:58:12;;;;;;;15.30;11.03;;;;;;;10.53;100.00;96519.94;5045170;28;20803;-82
2023/05/02 06:00:50;;;;;;;14.07;11.60;;;;;;;10.68;100.00;96519.38;5050482;28;20029;-83
2023/05/02 06:03:26;;;;;;;16.80;11.73;;;;;;;10.46;100.00;96518.03;5057021;28;20500;-83
2023/05/02 06:05:52;;;;;;;14.27;11.17;;;;;;;10.58;100.00;96522.91;5050387;28;20031;-82
2023/05/02 06:08:18;;;;;;;15.67;11.70;;;;;;;10.54;100.00;96520.75;5060981;28;20025;-84
2023/05/02 06:10:43;;;;;;;14.73;10.90;;;;;;;10.69;100.00;96528.91;5066238;28;20371;-83
2023/05/02 06:13:09;;;;;;;14.13;11.50;;;;;;;10.64;100.00;96533.81;5051161;28;20474;-82
2023/05/02 06:15:38;;;;;;;15.07;12.20;;;;;;;10.70;100.00;96543.72;5048459;28;20027;-83
2023/05/02 06:18:05;;;;;;;17.60;12.87;;;;;;;10.76;100.00;96545.72;5068206;28;20120;-83
2023/05/02 06:20:34;;;;;;;14.53;11.63;;;;;;;10.74;100.00;96552.97;5045894;28;20112;-83
2023/05/02 06:23:00;;;;;;;14.97;12.10;;;;;;;10.87;100.00;96548.13;5042993;28;20467;-83
2023/05/02 06:25:25;;;;;;;15.93;12.53;;;;;;;10.97;100.00;96558.56;5044379;28;20294;-83
2023/05/02 06:27:51;;;;;;;15.27;12.43;;;;;;;10.86;100.00;96556.97;5060736;28;20367;-82
2023/05/02 06:30:16;;;;;;;15.33;12.63;;;;;;;10.84;100.00;96570.31;5055268;28;20040;-83
2023/05/02 06:32:42;;;;;;;18.13;13.13;;;;;;;10.88;100.00;96570.81;5049471;28;20021;-83
2023/05/02 06:35:10;;;;;;;16.67;14.63;;;;;;;10.71;100.00;96584.81;5051593;28;20036;-83
2023/05/02 06:37:36;;;;;;;18.23;14.80;;;;;;;10.81;100.00;96583.75;5070271;28;20053;-83
2023/05/02 06:40:09;;;;;;;20.53;15.37;;;;;;;10.67;100.00;96584.31;5056335;28;20108;-82
2023/05/02 06:42:43;;;;;;;19.60;16.10;;;;;;;10.68;100.00;96590.38;5040103;28;20029;-83
2023/05/02 06:45:09;;;;;;;19.90;15.90;;;;;;;10.75;100.00;96591.44;5048063;28;20037;-82
2023/05/02 06:47:35;;;;;;;18.97;15.63;;;;;;;10.86;100.00;96583.28;5056441;28;20969;-83
2023/05/02 06:50:01;;;;;;;19.13;14.83;;;;;;;11.00;100.00;96593.28;5062193;28;20029;-83
2023/05/02 06:52:26;;;;;;;19.20;14.90;;;;;;;10.96;100.00;96591.09;5067671;28;20112;-83
2023/05/02 06:55:01;;;;;;;20.00;15.90;;;;;;;11.07;100.00;96591.69;5065800;28;20039;-83
2023/05/02 06:57:29;;;;;;;17.97;14.57;;;;;;;11.20;100.00;96600.97;5054528;28;20024;-82
2023/05/02 06:59:55;;;;;;;21.60;15.77;;;;;;;11.20;100.00;96595.72;5051352;28;20021;-83
2023/05/02 07:02:23;;;;;;;18.73;15.37;;;;;;;11.35;100.00;96602.09;5061115;28;20045;-83
2023/05/02 07:04:50;;;;;;;17.80;14.33;;;;;;;11.43;100.00;96599.50;5064392;28;20029;-83
2023/05/02 07:07:17;;;;;;;16.43;13.50;;;;;;;11.71;100.00;96607.25;5062811;28;20016;-83
2023/05/02 07:09:43;;;;;;;16.37;12.93;;;;;;;11.49;100.00;96596.22;5043611;28;20039;-83
2023/05/02 07:12:19;;;;;;;16.57;13.80;;;;;;;11.47;100.00;96608.75;5050866;28;20120;-83
2023/05/02 07:15:02;;;;;;;;;;;;;;;11.61;100.00;96601.25;5047697;28;20439;-82
2023/05/02 07:17:33;;;;;;;16.77;13.53;;;;;;;11.48;100.00;96607.75;5065338;28;19920;-83
2023/05/02 07:19:58;;;;;;;16.50;12.97;;;;;;;11.60;100.00;96610.94;5068648;28;20078;-84
2023/05/02 07:22:24;;;;;;;16.07;13.00;;;;;;;11.85;100.00;96611.13;5059842;28;20050;-82
2023/05/02 07:25:00;;;;;;;17.50;12.90;;;;;;;11.71;100.00;96615.13;5087312;28;20016;-84
2023/05/02 07:27:26;;;;;;;19.03;14.00;;;;;;;11.42;100.00;96613.66;5050513;28;20044;-83
2023/05/02 07:29:52;;;;;;;16.70;12.20;;;;;;;11.80;100.00;96622.09;5050469;28;20043;-83
2023/05/02 07:32:20;;;;;;;15.60;13.07;;;;;;;11.85;100.00;96622.47;5049527;28;20025;-83
2023/05/02 07:34:49;;;;;;;16.53;14.00;;;;;;;11.50;100.00;96624.25;5063507;28;20036;-83
2023/05/02 07:37:15;;;;;;;17.17;12.53;;;;;;;11.73;100.00;96624.50;5047371;28;20040;-83
2023/05/02 07:39:41;;;;;;;14.60;12.97;;;;;;;11.84;100.00;96622.59;5066266;28;20025;-83
2023/05/02 07:42:13;;;;;;;16.53;13.63;;;;;;;11.84;100.00;96619.94;5047045;28;20033;-83
2023/05/02 07:44:49;;;;;;;16.80;13.60;;;;;;;11.85;100.00;96625.13;5060369;28;20468;-83
2023/05/02 07:47:28;;;;;;;16.80;12.27;;;;;;;11.95;100.00;96622.38;5049368;28;20048;-82
2023/05/02 07:49:56;;;;;;;16.60;12.83;;;;;;;11.82;100.00;96627.22;5063601;28;20029;-83
2023/05/02 07:52:26;;;;;;;16.10;13.17;;;;;;;11.99;100.00;96619.25;5048572;28;20406;-83
2023/05/02 07:54:58;;;;;;;16.17;12.80;;;;;;;11.95;100.00;96622.38;5048070;28;20043;-83
2023/05/02 07:57:25;;;;;;;15.27;12.97;;;;;;;12.46;100.00;96626.66;5050774;28;20124;-83
2023/05/02 07:59:59;;;;;;;14.73;12.00;;;;;;;12.11;100.00;96624.25;5068122;28;20463;-83
2023/05/02 08:02:27;;;;;;;15.53;12.40;;;;;;;12.44;100.00;96627.78;5070802;28;20028;-83
2023/05/02 08:04:55;;;;;;;14.90;12.30;;;;;;;12.61;100.00;96633.94;5040179;28;20065;-84
2023/05/02 08:07:20;;;;;;;15.00;12.73;;;;;;;12.70;100.00;96638.22;5067929;28;20044;-83
2023/05/02 08:09:49;;;;;;;15.87;12.50;;;;;;;12.87;100.00;96634.63;5047689;28;20083;-83
2023/05/02 08:12:19;;;;;;;19.13;12.70;;;;;;;13.01;100.00;96640.25;5065798;28;20042;-82
2023/05/02 08:14:50;;;;;;;15.83;12.07;;;;;;;13.38;100.00;96635.34;5048303;28;20123;-83
2023/05/02 08:17:15;;;;;;;14.93;12.37;;;;;;;13.32;100.00;96629.91;5046323;28;20095;-83
2023/05/02 08:19:41;;;;;;;16.93;12.60;;;;;;;13.67;100.00;96626.84;5051062;28;20437;-83
2023/05/02 08:22:12;;;;;;;13.03;11.23;;;;;;;13.77;100.00;96623.19;5064377;28;20122;-83
2023/05/02 08:24:38;;;;;;;14.27;12.23;;;;;;;13.85;100.00;96626.66;5067246;28;20260;-83
2023/05/02 08:27:04;;;;;;;16.93;11.07;;;;;;;14.22;100.00;96625.19;5061547;28;20029;-83
2023/05/02 08:29:30;;;;;;;12.80;10.63;;;;;;;14.59;100.00;96623.72;5067188;28;20059;-83
2023/05/02 08:31:56;;;;;;;12.27;10.63;;;;;;;14.62;100.00;96620.72;5065712;28;20033;-83
2023/05/02 08:34:21;;;;;;;13.00;10.27;;;;;;;15.58;100.00;96616.63;5062387;28;20043;-83
2023/05/02 08:37:00;;;;;;;14.33;10.63;;;;;;;15.44;100.00;96617.44;5042501;28;20033;-83
2023/05/02 08:39:33;;;;;;;11.70;10.10;;;;;;;15.55;100.00;96622.28;5060193;28;20493;-83
2023/05/02 08:41:59;;;;;;;12.63;10.50;;;;;;;16.03;100.00;96625.47;5049667;28;20033;-83
2023/05/02 08:44:25;;;;;;;12.97;10.20;;;;;;;16.03;100.00;96625.47;5072240;28;20032;-83
2023/05/02 08:46:52;;;;;;;12.87;9.70;;;;;;;16.11;100.00;96622.69;5052747;28;20393;-83
2023/05/02 08:49:24;;;;;;;13.90;9.33;;;;;;;16.20;100.00;96626.09;5065048;28;20432;-82
2023/05/02 08:52:01;;;;;;;12.00;9.43;;;;;;;16.20;100.00;96626.91;5065871;28;20044;-83
2023/05/02 08:54:27;;;;;;;13.32;9.77;;;;;;;15.97;100.00;96628.84;5067891;28;20051;-83
2023/05/02 08:56:53;;;;;;;12.15;9.63;;;;;;;16.11;100.00;96632.50;5055464;28;20017;-83
2023/05/02 08:59:19;;;;;;;11.55;9.23;;;;;;;16.48;100.00;96636.84;5065284;28;20666;-83
2023/05/02 09:01:59;;;;;;;11.65;9.30;;;;;;;16.55;100.00;96642.22;5071610;28;20078;-83
2023/05/02 09:04:33;;;;;;;14.02;9.57;;;;;;;16.10;100.00;96644.94;5041861;28;20028;-83
2023/05/02 09:07:07;;;;;;;12.63;10.50;;;;;;;16.26;100.00;96647.41;5054985;28;20173;-82
2023/05/02 09:09:33;;;;;;;12.95;9.63;;;;;;;16.12;100.00;96640.25;5067469;28;20569;-82
2023/05/02 09:11:59;;;;;;;12.65;8.65;;;;;;;16.51;100.00;96647.09;5079165;28;20025;-83
2023/05/02 09:14:25;;;;;;;11.95;9.20;;;;;;;16.46;100.00;96644.16;5062273;28;20073;-85
2023/05/02 09:16:58;;;;;;;12.57;9.50;;;;;;;16.77;100.00;96646.59;5051443;28;20033;-85
2023/05/02 09:19:25;;;;;;;12.00;9.70;;;;;;;16.96;100.00;96648.63;5041730;28;20078;-83
2023/05/02 09:22:02;;;;;;;11.68;9.88;;;;;;;17.41;100.00;96641.28;5053757;28;20082;-84
2023/05/02 09:24:36;;;;;;;12.45;8.90;;;;;;;17.86;100.00;96628.53;5048738;28;20029;-84
2023/05/02 09:27:04;;;;;;;14.63;9.93;;;;;;;17.85;100.00;96636.72;5051525;28;20486;-83
2023/05/02 09:29:39;;;;;;;10.48;8.55;;;;;;;17.73;100.00;96632.91;5066701;28;20028;-84
2023/05/02 09:32:05;;;;;;;13.50;9.48;;;;;;;17.58;100.00;96643.66;5062601;28;20029;-83
2023/05/02 09:34:31;;;;;;;13.20;9.55;;;;;;;17.54;100.00;96645.88;5064707;28;20055;-84
2023/05/02 09:36:57;;;;;;;12.23;9.90;;;;;;;17.73;100.00;96648.88;5063990;28;20395;-83
2023/05/02 09:39:25;;;;;;;11.52;9.73;;;;;;;17.68;100.00;96647.63;5048666;28;20024;-82
2023/05/02 09:41:51;;;;;;;12.52;9.55;;;;;;;18.49;100.00;96647.06;5047771;28;20089;-86
2023/05/02 09:44:19;;;;;;;12.10;9.70;;;;;;;18.27;100.00;96650.84;5069143;28;20029;-86
2023/05/02 09:47:01;;;;;;;12.88;10.18;;;;;;;17.59;100.00;96648.78;5053331;28;20039;-83
2023/05/02 09:50:30;;;;;;;;;;;;;;;;;;;;;
2023/05/02 09:53:30;;;;;;;14.00;10.45;;;;;;;17.73;100.00;96649.69;5066163;28;20058;-84
2023/05/02 09:56:01;;;;;;;10.65;9.10;;;;;;;18.18;100.00;96644.06;5058784;28;20064;-83
2023/05/02 09:58:26;;;;;;;14.20;9.80;;;;;;;19.02;100.00;96646.47;5069669;28;20042;-84
2023/05/02 10:01:13;;;;;;;12.80;9.52;;;;;;;19.63;100.00;96645.47;5053361;28;20556;-85
2023/05/02 10:03:51;;;;;;;11.60;9.88;;;;;;;19.01;100.00;96648.31;5053410;28;20055;-85
2023/05/02 10:06:19;;;;;;;13.57;9.07;;;;;;;20.06;100.00;96648.53;5056920;28;20033;-85
2023/05/02 10:08:46;;;;;;;12.82;9.40;;;;;;;20.22;100.00;96648.09;5055095;28;20107;-86
2023/05/02 10:11:13;;;;;;;12.27;9.32;;;;;;;20.89;100.00;96643.31;5050505;28;20036;-85
2023/05/02 10:13:46;;;;;;;13.98;9.23;;;;;;;20.72;100.00;96639.47;5052872;28;20123;-85
2023/05/02 10:16:22;;;;;;;11.93;7.85;;;;;;;21.41;100.00;96644.00;5070158;28;20129;-83
2023/05/02 10:19:08;;;;;;;10.40;8.23;;;;;;;21.93;100.00;96641.13;5066862;28;20115;-83
2023/05/02 10:21:46;;;;;;;10.38;8.70;;;;;;;21.89;100.00;96635.34;5056201;28;20036;-83
2023/05/02 10:24:12;;;;;;;11.02;8.00;;;;;;;22.06;100.00;96642.81;5052745;28;20029;-82
2023/05/02 10:26:42;;;;;;;9.95;6.75;;;;;;;22.85;100.00;96634.94;5042453;28;20374;-83
2023/05/02 10:29:08;;;;;;;11.27;8.00;;;;;;;21.87;100.00;96633.97;5047564;28;20025;-83
2023/05/02 10:31:36;;;;;;;10.77;7.90;;;;;;;22.96;99.22;96636.88;5051646;28;20103;-83
2023/05/02 10:34:02;;;;;;;11.40;7.50;;;;;;;23.17;97.11;96631.00;5052814;28;20474;-83
2023/05/02 10:36:31;;;;;;;11.23;7.60;;;;;;;22.02;100.00;96634.41;5069007;28;20029;-82
2023/05/02 10:38:56;;;;;;;9.45;7.57;;;;;;;22.88;97.20;96631.78;5048651;28;20090;-82
2023/05/02 10:41:33;;;;;;;8.48;6.85;;;;;;;23.41;94.39;96621.13;5050061;28;20025;-82
2023/05/02 10:44:00;;;;;;;10.68;7.35;;;;;;;22.79;93.26;96629.41;5050295;28;20020;-83
2023/05/02 10:46:42;;;;;;;9.25;7.05;;;;;;;22.52;95.86;96615.53;5070820;28;20029;-83
2023/05/02 10:49:15;;;;;;;10.95;6.53;;;;;;;23.34;92.01;96617.75;5070095;28;20032;-83
2023/05/02 10:51:56;;;;;;;9.65;6.43;;;;;;;23.72;89.92;96608.47;5082324;28;20040;-82
2023/05/02 10:54:26;;;;;;;9.65;7.25;;;;;;;23.80;86.13;96607.28;5069458;28;20040;-83
2023/05/02 10:57:04;;;;;;;9.02;6.57;;;;;;;23.93;81.45;96607.88;5069524;28;20033;-83
2023/05/02 10:59:33;;;;;;;14.77;6.22;;;;;;;22.64;90.24;96612.94;5058614;28;20482;-82
2023/05/02 11:02:00;;;;;;;8.70;6.28;;;;;;;22.40;88.90;96616.50;5068361;28;20498;-83
2023/05/02 11:05:04;;;;;;;10.20;6.95;;;;;;;21.29;100.00;96613.59;5046421;28;20082;-83
2023/05/02 11:07:36;;;;;;;8.05;6.38;;;;;;;21.32;98.26;96623.88;5040149;28;20029;-82
2023/05/02 11:10:20;;;;;;;10.20;8.07;;;;;;;22.48;90.15;96617.03;5061964;28;20052;-83
2023/05/02 11:13:00;;;;;;;10.63;8.77;;;;;;;21.53;94.96;96617.38;5057347;28;20533;-83
2023/05/02 11:15:28;;;;;;;10.70;6.40;;;;;;;22.10;93.10;96609.22;5043947;28;20590;-83
2023/05/02 11:18:07;;;;;;;11.38;7.07;;;;;;;22.25;90.56;96609.69;5059764;28;20028;-83
2023/05/02 11:20:38;;;;;;;9.07;6.63;;;;;;;22.00;96.78;96608.88;5061569;28;20466;-82
2023/05/02 11:23:24;;;;;;;9.30;7.30;;;;;;;22.59;89.94;96610.91;5064525;28;20119;-85
2023/05/02 11:25:55;;;;;;;8.30;6.97;;;;;;;22.80;90.88;96604.25;5063253;28;20029;-82
2023/05/02 11:28:46;;;;;;;11.93;6.85;;;;;;;22.86;91.64;96609.75;5083049;28;20052;-83
2023/05/02 11:31:26;;;;;;;9.05;7.22;;;;;;;24.03;76.32;96607.28;5049135;28;20043;-83
2023/05/02 11:34:04;;;;;;;10.35;7.03;;;;;;;22.89;87.51;96611.97;5063167;28;20375;-83
2023/05/02 11:36:34;;;;;;;10.57;7.10;;;;;;;22.71;87.67;96616.34;5060736;28;20072;-83